createdAt,value
2022-12-14T00:03:55.766Z,100278.44
2022-12-14T00:09:00.638Z,100282.63
2022-12-14T00:14:04.500Z,100285.13
2022-12-14T00:19:06.873Z,100273.38
2022-12-14T00:24:09.545Z,100248.81
2022-12-14T00:29:12.228Z,100275.13
2022-12-14T00:34:14.788Z,100254.78
2022-12-14T00:39:17.991Z,100271.91
2022-12-14T00:44:20.398Z,100280.88
2022-12-14T00:49:22.709Z,100280.22
2022-12-14T00:54:25.006Z,100243.88
2022-12-14T00:59:27.790Z,100263.19
2022-12-14T01:04:30.436Z,100277.22
2022-12-14T01:09:32.720Z,100285.50
2022-12-14T01:14:35.107Z,100241.38
2022-12-14T01:19:37.486Z,100262.16
2022-12-14T01:24:40.071Z,100245.81
2022-12-14T01:29:42.285Z,100258.44
2022-12-14T01:34:44.497Z,100242.94
2022-12-14T01:39:47.753Z,100265.34
2022-12-14T01:44:56.001Z,100268.63
2022-12-14T01:50:11.517Z,100273.13
2022-12-14T01:55:29.756Z,100267.34
2022-12-14T02:00:32.544Z,100275.81
2022-12-14T02:05:38.069Z,100291.59
2022-12-14T02:10:40.510Z,100278.75
2022-12-14T02:15:43.642Z,100272.94
2022-12-14T02:21:06.009Z,100291.97
2022-12-14T02:26:23.557Z,100298.81
2022-12-14T02:31:43.735Z,100302.00
2022-12-14T02:37:00.748Z,100304.81
2022-12-14T02:42:25.085Z,100304.91
2022-12-14T02:47:46.934Z,100294.94
2022-12-14T02:53:10.284Z,100307.81
2022-12-14T02:58:21.813Z,100316.47
2022-12-14T03:03:24.532Z,100302.88
2022-12-14T03:08:30.106Z,100285.00
2022-12-14T03:13:44.273Z,100294.94
2022-12-14T03:19:16.162Z,100279.47
2022-12-14T03:24:26.007Z,100287.03
2022-12-14T03:29:37.790Z,100276.88
2022-12-14T03:34:53.760Z,100308.38
2022-12-14T03:39:56.311Z,100311.44
2022-12-14T03:45:17.665Z,100288.31
2022-12-14T03:50:33.171Z,100298.13
2022-12-14T03:56:02.995Z,100294.06
2022-12-14T04:01:35.440Z,100303.41
2022-12-14T04:06:49.665Z,100319.47
2022-12-14T04:12:17.490Z,100302.13
2022-12-14T04:17:44.276Z,100328.91
2022-12-14T04:22:52.678Z,100332.97
2022-12-14T04:27:57.703Z,100321.41
2022-12-14T04:33:26.923Z,100289.00
2022-12-14T04:38:36.424Z,100341.19
2022-12-14T04:43:42.878Z,100309.13
2022-12-14T04:48:45.030Z,100347.81
2022-12-14T04:53:52.785Z,100314.56
2022-12-14T04:58:55.381Z,100349.22
2022-12-14T05:04:22.594Z,100347.72
2022-12-14T05:09:42.578Z,100361.41
2022-12-14T05:14:51.389Z,100351.44
2022-12-14T05:19:54.763Z,100361.13
2022-12-14T05:24:57.037Z,100356.13
2022-12-14T05:29:59.315Z,100343.75
2022-12-14T05:35:02.665Z,100372.97
2022-12-14T05:40:05.394Z,100374.72
2022-12-14T05:45:08.566Z,100407.41
2022-12-14T05:50:12.336Z,100389.13
2022-12-14T05:55:14.545Z,100364.00
2022-12-14T06:00:17.008Z,100348.19
2022-12-14T06:05:19.683Z,100357.88
2022-12-14T06:10:21.903Z,100395.31
2022-12-14T06:15:27.188Z,100361.94
2022-12-14T06:20:31.882Z,100415.19
2022-12-14T06:25:34.164Z,100376.28
2022-12-14T06:30:36.400Z,100397.63
2022-12-14T06:35:45.924Z,100410.09
2022-12-14T06:40:48.393Z,100399.19
2022-12-14T06:45:50.676Z,100388.66
2022-12-14T06:50:52.967Z,100405.84
2022-12-14T06:55:55.221Z,100381.66
2022-12-14T07:01:01.321Z,100403.19
2022-12-14T07:06:04.737Z,100414.75
2022-12-14T07:11:09.760Z,100442.66
2022-12-14T07:16:26.418Z,100450.13
2022-12-14T07:21:28.684Z,100413.19
2022-12-14T07:26:31.234Z,100425.00
2022-12-14T07:31:33.588Z,100412.44
2022-12-14T07:36:35.912Z,100434.22
2022-12-14T07:41:38.180Z,100417.59
2022-12-14T07:46:41.528Z,100444.50
2022-12-14T07:51:44.759Z,100406.13
2022-12-14T07:56:47.090Z,100452.75
2022-12-14T08:01:49.661Z,100440.59
2022-12-14T08:06:52.061Z,100442.44
2022-12-14T08:11:54.325Z,100449.94
2022-12-14T08:16:56.557Z,100460.41
2022-12-14T08:21:58.779Z,100495.09
2022-12-14T08:27:00.981Z,100491.94
2022-12-14T08:32:03.198Z,100443.03
2022-12-14T08:37:05.419Z,100475.59
2022-12-14T08:42:07.733Z,100488.06
2022-12-14T08:47:09.974Z,100524.81
2022-12-14T08:52:15.149Z,100495.56
2022-12-14T08:57:17.361Z,100503.50
2022-12-14T09:02:19.677Z,100483.53
2022-12-14T09:07:22.099Z,100499.34
2022-12-14T09:12:24.420Z,100475.84
2022-12-14T09:17:26.675Z,100476.53
2022-12-14T09:22:29.214Z,100463.84
2022-12-14T09:27:31.546Z,100463.91
2022-12-14T09:32:33.856Z,100475.66
2022-12-14T09:37:36.546Z,100478.78
2022-12-14T09:42:51.480Z,100467.81
2022-12-14T09:48:12.747Z,100473.41
2022-12-14T09:53:16.682Z,100420.28
2022-12-14T09:58:24.215Z,100436.00
2022-12-14T10:03:43.661Z,100460.22
2022-12-14T10:08:57.468Z,100467.25
2022-12-14T10:14:38.325Z,100456.22
2022-12-14T10:19:58.028Z,100421.56
2022-12-14T10:25:24.829Z,100421.59
2022-12-14T10:30:27.228Z,100437.91
2022-12-14T10:35:38.790Z,100406.06
2022-12-14T10:40:49.784Z,100402.69
2022-12-14T10:46:14.784Z,100410.63
2022-12-14T10:51:31.288Z,100411.69
2022-12-14T10:56:37.070Z,100382.59
2022-12-14T11:01:39.461Z,100406.28
2022-12-14T11:06:41.850Z,100385.13
2022-12-14T11:11:46.196Z,100362.13
2022-12-14T11:16:51.034Z,100344.91
2022-12-14T11:22:20.284Z,100354.84
2022-12-14T11:27:24.398Z,100348.03
2022-12-14T11:32:26.697Z,100339.34
2022-12-14T11:37:33.131Z,100357.34
2022-12-14T11:42:37.493Z,100345.34
2022-12-14T11:47:39.973Z,100331.69
2022-12-14T11:52:43.443Z,100310.34
2022-12-14T11:57:55.874Z,100348.91
2022-12-14T12:03:04.047Z,100321.75
2022-12-14T12:08:16.329Z,100313.06
2022-12-14T12:13:32.962Z,100325.94
2022-12-14T12:18:46.226Z,100314.53
2022-12-14T12:24:07.582Z,100313.56
2022-12-14T12:29:30.765Z,100321.63
2022-12-14T12:34:39.074Z,100323.47
2022-12-14T12:39:46.248Z,100304.78
2022-12-14T12:45:02.818Z,100322.94
2022-12-14T12:50:13.971Z,100320.44
2022-12-14T12:55:20.306Z,100322.22
2022-12-14T13:00:27.771Z,100327.25
2022-12-14T13:05:48.644Z,100339.88
2022-12-14T13:16:26.190Z,100351.00
2022-12-14T13:21:35.741Z,100333.16
2022-12-14T13:27:03.175Z,100353.31
2022-12-14T13:32:33.786Z,100323.88
2022-12-14T13:37:59.322Z,100313.75
2022-12-14T13:43:17.157Z,100321.75
2022-12-14T13:48:34.718Z,100329.41
2022-12-14T13:53:50.034Z,100355.72
2022-12-14T13:58:55.019Z,100330.63
2022-12-14T14:04:43.808Z,100340.22
2022-12-14T14:10:05.134Z,100316.38
2022-12-14T14:15:52.006Z,100330.06
2022-12-14T14:21:13.191Z,100327.59
2022-12-14T14:26:33.993Z,100299.34
2022-12-14T14:32:02.565Z,100332.75
2022-12-14T14:37:28.018Z,100320.53
2022-12-14T14:42:35.922Z,100311.25
2022-12-14T14:47:40.449Z,100297.13
2022-12-14T14:52:42.688Z,100312.66
2022-12-14T14:58:01.781Z,100299.38
2022-12-14T15:03:06.937Z,100294.69
2022-12-14T15:08:38.566Z,100295.69
2022-12-14T15:13:49.775Z,100295.91
2022-12-14T15:18:52.124Z,100275.41
2022-12-14T15:23:56.739Z,100285.09
2022-12-14T15:29:00.984Z,100292.56
2022-12-14T15:34:04.052Z,100293.13
2022-12-14T15:39:06.789Z,100242.78
2022-12-14T15:44:21.867Z,100267.66
2022-12-14T15:49:27.332Z,100253.75
2022-12-14T15:54:29.704Z,100275.09
2022-12-14T15:59:35.567Z,100281.50
2022-12-14T16:04:38.443Z,100252.28
2022-12-14T16:09:50.393Z,100266.56
2022-12-14T16:15:00.470Z,100247.16
2022-12-14T16:20:21.857Z,100244.41
2022-12-14T16:25:24.211Z,100268.81
2022-12-14T16:30:30.490Z,100248.75
2022-12-14T16:35:35.896Z,100252.13
2022-12-14T16:40:59.935Z,100241.19
2022-12-14T16:46:04.990Z,100241.78
2022-12-14T16:52:04.969Z,100232.66
2022-12-14T16:56:59.139Z,100226.44
2022-12-14T17:02:01.535Z,100213.38
2022-12-14T17:07:05.416Z,100204.84
2022-12-14T17:12:15.167Z,100237.66
2022-12-14T17:17:25.446Z,100238.69
2022-12-14T17:22:30.693Z,100250.88
2022-12-14T17:27:32.969Z,100200.53
2022-12-14T17:32:38.285Z,100227.44
2022-12-14T17:37:40.516Z,100228.31
2022-12-14T17:42:52.505Z,100242.81
2022-12-14T17:47:55.554Z,100224.00
2022-12-14T17:52:57.817Z,100237.00
2022-12-14T17:58:00.785Z,100221.50
2022-12-14T18:03:04.898Z,100212.25
2022-12-14T18:08:07.363Z,100188.84
2022-12-14T18:13:11.967Z,100181.41
2022-12-14T18:18:15.383Z,100176.47
2022-12-14T18:23:19.040Z,100164.09
2022-12-14T18:28:22.196Z,100159.75
2022-12-14T18:33:27.646Z,100144.66
2022-12-14T18:38:30.153Z,100133.91
2022-12-14T18:43:33.345Z,100153.34
2022-12-14T18:48:36.666Z,100118.16
2022-12-14T18:53:39.331Z,100122.28
2022-12-14T18:58:42.448Z,100106.56
2022-12-14T19:03:45.677Z,100145.09
2022-12-14T19:08:49.689Z,100135.56
2022-12-14T19:13:52.175Z,100147.19
2022-12-14T19:18:54.590Z,100121.91
2022-12-14T19:23:56.965Z,100149.44
2022-12-14T19:28:59.274Z,100149.03
2022-12-14T19:34:01.845Z,100122.75
2022-12-14T19:39:05.027Z,100122.81
2022-12-14T19:44:07.526Z,100082.88
2022-12-14T19:49:13.307Z,100085.13
2022-12-14T19:54:15.746Z,100099.03
2022-12-14T19:59:18.775Z,100085.59
2022-12-14T20:04:21.477Z,100068.81
2022-12-14T20:09:23.842Z,100082.44
2022-12-14T20:14:26.900Z,100073.56
2022-12-14T20:19:29.293Z,100088.28
2022-12-14T20:24:31.978Z,100068.63
2022-12-14T20:29:34.414Z,100050.19
2022-12-14T20:34:39.599Z,100074.63
2022-12-14T20:39:42.176Z,100048.34
2022-12-14T20:44:44.542Z,100047.31
2022-12-14T20:49:52.256Z,100011.56
2022-12-14T20:54:54.610Z,100039.44
2022-12-14T20:59:59.393Z,100039.06
2022-12-14T21:05:02.167Z,100046.72
2022-12-14T21:10:08.203Z,100037.78
2022-12-14T21:15:10.754Z,100018.38
2022-12-14T21:20:13.650Z,100024.38
2022-12-14T21:25:16.107Z,100029.13
2022-12-14T21:30:19.002Z,100025.41
2022-12-14T21:35:21.332Z,100021.06
2022-12-14T21:40:42.366Z,99998.09
2022-12-14T21:45:46.191Z,99989.81
2022-12-14T21:50:48.550Z,100004.91
2022-12-14T21:55:52.261Z,100007.59
2022-12-14T22:00:54.566Z,100007.00
2022-12-14T22:05:57.205Z,99970.41
2022-12-14T22:11:03.372Z,99990.03
2022-12-14T22:16:08.534Z,99964.84
2022-12-14T22:21:10.726Z,99945.03
2022-12-14T22:26:12.984Z,99964.22
2022-12-14T22:31:15.292Z,99960.31
2022-12-14T22:36:18.651Z,99926.84
2022-12-14T22:41:21.163Z,99940.50
2022-12-14T22:46:25.254Z,99924.38
2022-12-14T22:51:29.559Z,99900.63
2022-12-14T22:56:34.539Z,99916.94
2022-12-14T23:01:37.972Z,99903.31
2022-12-14T23:06:41.830Z,99889.03
2022-12-14T23:12:02.619Z,99904.34
2022-12-14T23:17:24.522Z,99891.31
2022-12-14T23:22:45.925Z,99881.00
2022-12-14T23:28:10.605Z,99869.66
2022-12-14T23:33:31.580Z,99885.31
2022-12-14T23:38:52.896Z,99877.06
2022-12-14T23:44:13.788Z,99908.28
2022-12-14T23:49:34.807Z,99854.78
2022-12-14T23:54:55.546Z,99878.31
